sensor_id;sensor_type;location;lat;lon;timestamp;P1;durP1;ratioP1;P2;durP2;ratioP2
65572;SDS011;52214;50.940;13.996;2023-02-15T00:01:10;7.32;;;3.50;;
65572;SDS011;52214;50.940;13.996;2023-02-15T00:03:37;6.90;;;3.30;;
65572;SDS011;52214;50.940;13.996;2023-02-15T00:06:03;7.32;;;3.40;;
65572;SDS011;52214;50.940;13.996;2023-02-15T00:08:30;7.15;;;3.83;;
65572;SDS011;52214;50.940;13.996;2023-02-15T00:11:04;6.88;;;3.50;;
65572;SDS011;52214;50.940;13.996;2023-02-15T00:13:31;6.50;;;3.20;;
65572;SDS011;52214;50.940;13.996;2023-02-15T00:16:05;8.00;;;3.60;;
65572;SDS011;52214;50.940;13.996;2023-02-15T00:18:33;7.28;;;3.42;;
65572;SDS011;52214;50.940;13.996;2023-02-15T00:21:03;6.78;;;3.40;;
65572;SDS011;52214;50.940;13.996;2023-02-15T00:23:31;7.83;;;3.73;;
65572;SDS011;52214;50.940;13.996;2023-02-15T00:26:04;6.00;;;3.13;;
65572;SDS011;52214;50.940;13.996;2023-02-15T00:28:32;7.28;;;3.45;;
65572;SDS011;52214;50.940;13.996;2023-02-15T00:31:05;7.07;;;3.40;;
65572;SDS011;52214;50.940;13.996;2023-02-15T00:33:33;7.25;;;3.10;;
65572;SDS011;52214;50.940;13.996;2023-02-15T00:36:01;7.13;;;3.60;;
65572;SDS011;52214;50.940;13.996;2023-02-15T00:38:27;6.88;;;3.05;;
65572;SDS011;52214;50.940;13.996;2023-02-15T00:40:55;7.15;;;3.40;;
65572;SDS011;52214;50.940;13.996;2023-02-15T00:43:24;6.53;;;3.10;;
65572;SDS011;52214;50.940;13.996;2023-02-15T00:45:51;7.80;;;3.90;;
65572;SDS011;52214;50.940;13.996;2023-02-15T00:48:17;7.35;;;3.30;;
65572;SDS011;52214;50.940;13.996;2023-02-15T00:50:44;7.00;;;2.83;;
65572;SDS011;52214;50.940;13.996;2023-02-15T00:53:11;7.67;;;3.27;;
65572;SDS011;52214;50.940;13.996;2023-02-15T00:55:37;8.25;;;3.58;;
65572;SDS011;52214;50.940;13.996;2023-02-15T00:58:05;6.93;;;3.22;;
65572;SDS011;52214;50.940;13.996;2023-02-15T01:00:31;7.27;;;3.20;;
65572;SDS011;52214;50.940;13.996;2023-02-15T01:02:57;7.47;;;3.53;;
65572;SDS011;52214;50.940;13.996;2023-02-15T01:05:22;6.80;;;3.90;;
65572;SDS011;52214;50.940;13.996;2023-02-15T01:07:48;6.80;;;3.13;;
65572;SDS011;52214;50.940;13.996;2023-02-15T01:10:14;6.50;;;3.03;;
65572;SDS011;52214;50.940;13.996;2023-02-15T01:12:39;6.03;;;3.28;;
65572;SDS011;52214;50.940;13.996;2023-02-15T01:15:05;7.72;;;4.00;;
65572;SDS011;52214;50.940;13.996;2023-02-15T01:17:31;7.20;;;3.90;;
65572;SDS011;52214;50.940;13.996;2023-02-15T01:19:57;6.75;;;3.42;;
65572;SDS011;52214;50.940;13.996;2023-02-15T01:22:22;5.88;;;3.17;;
65572;SDS011;52214;50.940;13.996;2023-02-15T01:24:48;7.33;;;3.53;;
65572;SDS011;52214;50.940;13.996;2023-02-15T01:27:15;9.05;;;3.67;;
65572;SDS011;52214;50.940;13.996;2023-02-15T01:29:40;6.97;;;3.30;;
65572;SDS011;52214;50.940;13.996;2023-02-15T01:32:06;8.00;;;3.45;;
65572;SDS011;52214;50.940;13.996;2023-02-15T01:34:31;6.45;;;3.30;;
65572;SDS011;52214;50.940;13.996;2023-02-15T01:36:57;7.20;;;3.13;;
65572;SDS011;52214;50.940;13.996;2023-02-15T01:39:23;6.30;;;3.30;;
65572;SDS011;52214;50.940;13.996;2023-02-15T01:41:49;6.33;;;3.13;;
65572;SDS011;52214;50.940;13.996;2023-02-15T01:52:25;6.45;;;3.50;;
65572;SDS011;52214;50.940;13.996;2023-02-15T01:54:50;7.10;;;3.57;;
65572;SDS011;52214;50.940;13.996;2023-02-15T01:57:18;6.95;;;3.00;;
65572;SDS011;52214;50.940;13.996;2023-02-15T01:59:47;6.93;;;3.22;;
65572;SDS011;52214;50.940;13.996;2023-02-15T02:02:17;6.15;;;2.85;;
65572;SDS011;52214;50.940;13.996;2023-02-15T02:04:50;6.93;;;3.93;;
65572;SDS011;52214;50.940;13.996;2023-02-15T02:07:20;7.57;;;3.15;;
65572;SDS011;52214;50.940;13.996;2023-02-15T02:09:48;6.97;;;3.22;;
65572;SDS011;52214;50.940;13.996;2023-02-15T02:12:14;6.93;;;3.20;;
65572;SDS011;52214;50.940;13.996;2023-02-15T02:14:42;5.90;;;2.95;;
65572;SDS011;52214;50.940;13.996;2023-02-15T02:17:31;6.53;;;3.00;;
65572;SDS011;52214;50.940;13.996;2023-02-15T02:23:13;6.45;;;3.35;;
65572;SDS011;52214;50.940;13.996;2023-02-15T02:26:16;7.38;;;3.70;;
65572;SDS011;52214;50.940;13.996;2023-02-15T02:29:13;6.07;;;3.10;;
65572;SDS011;52214;50.940;13.996;2023-02-15T02:35:07;6.90;;;3.20;;
65572;SDS011;52214;50.940;13.996;2023-02-15T02:37:52;6.35;;;3.03;;
65572;SDS011;52214;50.940;13.996;2023-02-15T02:40:30;6.93;;;3.25;;
65572;SDS011;52214;50.940;13.996;2023-02-15T02:43:15;7.25;;;3.28;;
65572;SDS011;52214;50.940;13.996;2023-02-15T02:45:58;6.63;;;3.03;;
65572;SDS011;52214;50.940;13.996;2023-02-15T02:48:30;6.75;;;3.03;;
65572;SDS011;52214;50.940;13.996;2023-02-15T02:50:58;6.78;;;2.72;;
65572;SDS011;52214;50.940;13.996;2023-02-15T02:53:25;6.53;;;3.50;;
65572;SDS011;52214;50.940;13.996;2023-02-15T02:55:56;7.45;;;3.60;;
65572;SDS011;52214;50.940;13.996;2023-02-15T02:58:29;7.80;;;3.10;;
65572;SDS011;52214;50.940;13.996;2023-02-15T03:01:06;7.07;;;3.63;;
65572;SDS011;52214;50.940;13.996;2023-02-15T03:03:39;7.45;;;3.40;;
65572;SDS011;52214;50.940;13.996;2023-02-15T03:06:11;6.13;;;3.03;;
65572;SDS011;52214;50.940;13.996;2023-02-15T03:08:45;6.28;;;2.97;;
65572;SDS011;52214;50.940;13.996;2023-02-15T03:11:14;6.63;;;3.20;;
65572;SDS011;52214;50.940;13.996;2023-02-15T03:13:40;6.88;;;3.17;;
65572;SDS011;52214;50.940;13.996;2023-02-15T03:16:08;7.10;;;3.58;;
65572;SDS011;52214;50.940;13.996;2023-02-15T03:18:54;6.85;;;3.40;;
65572;SDS011;52214;50.940;13.996;2023-02-15T03:21:31;7.30;;;3.20;;
65572;SDS011;52214;50.940;13.996;2023-02-15T03:24:04;6.43;;;3.17;;
65572;SDS011;52214;50.940;13.996;2023-02-15T03:26:40;6.88;;;3.17;;
65572;SDS011;52214;50.940;13.996;2023-02-15T03:29:10;7.60;;;3.10;;
65572;SDS011;52214;50.940;13.996;2023-02-15T03:31:40;8.05;;;3.50;;
65572;SDS011;52214;50.940;13.996;2023-02-15T03:34:10;6.97;;;3.25;;
65572;SDS011;52214;50.940;13.996;2023-02-15T03:36:42;7.50;;;3.33;;
65572;SDS011;52214;50.940;13.996;2023-02-15T03:39:17;7.07;;;3.30;;
65572;SDS011;52214;50.940;13.996;2023-02-15T03:49:37;6.78;;;2.83;;
65572;SDS011;52214;50.940;13.996;2023-02-15T03:52:08;5.93;;;3.05;;
65572;SDS011;52214;50.940;13.996;2023-02-15T03:54:36;7.22;;;3.15;;
65572;SDS011;52214;50.940;13.996;2023-02-15T03:57:22;6.20;;;3.13;;
65572;SDS011;52214;50.940;13.996;2023-02-15T04:03:20;6.95;;;3.03;;
65572;SDS011;52214;50.940;13.996;2023-02-15T04:05:52;6.25;;;2.70;;
65572;SDS011;52214;50.940;13.996;2023-02-15T04:08:18;6.33;;;2.67;;
65572;SDS011;52214;50.940;13.996;2023-02-15T04:10:43;7.80;;;3.40;;
65572;SDS011;52214;50.940;13.996;2023-02-15T04:13:32;6.60;;;3.20;;
65572;SDS011;52214;50.940;13.996;2023-02-15T04:15:57;7.30;;;3.22;;
65572;SDS011;52214;50.940;13.996;2023-02-15T04:18:31;7.93;;;3.33;;
65572;SDS011;52214;50.940;13.996;2023-02-15T04:21:20;6.72;;;3.28;;
65572;SDS011;52214;50.940;13.996;2023-02-15T04:24:05;7.30;;;3.42;;
65572;SDS011;52214;50.940;13.996;2023-02-15T04:26:50;6.30;;;2.80;;
65572;SDS011;52214;50.940;13.996;2023-02-15T04:29:20;6.07;;;2.65;;
65572;SDS011;52214;50.940;13.996;2023-02-15T04:31:46;8.48;;;3.15;;
65572;SDS011;52214;50.940;13.996;2023-02-15T04:34:13;8.32;;;3.30;;
65572;SDS011;52214;50.940;13.996;2023-02-15T04:36:39;6.82;;;3.30;;
65572;SDS011;52214;50.940;13.996;2023-02-15T04:39:06;6.80;;;2.97;;
65572;SDS011;52214;50.940;13.996;2023-02-15T04:41:33;6.57;;;3.20;;
65572;SDS011;52214;50.940;13.996;2023-02-15T04:43:59;8.18;;;3.42;;
65572;SDS011;52214;50.940;13.996;2023-02-15T04:46:26;7.50;;;3.30;;
65572;SDS011;52214;50.940;13.996;2023-02-15T04:48:52;6.78;;;3.13;;
65572;SDS011;52214;50.940;13.996;2023-02-15T04:51:18;7.07;;;3.07;;
65572;SDS011;52214;50.940;13.996;2023-02-15T04:53:44;8.32;;;3.55;;
65572;SDS011;52214;50.940;13.996;2023-02-15T04:56:10;7.10;;;3.30;;
65572;SDS011;52214;50.940;13.996;2023-02-15T04:58:36;5.93;;;3.03;;
65572;SDS011;52214;50.940;13.996;2023-02-15T05:01:02;6.77;;;3.23;;
65572;SDS011;52214;50.940;13.996;2023-02-15T05:03:28;7.85;;;3.20;;
65572;SDS011;52214;50.940;13.996;2023-02-15T05:05:54;6.95;;;3.45;;
65572;SDS011;52214;50.940;13.996;2023-02-15T05:08:20;6.37;;;3.00;;
65572;SDS011;52214;50.940;13.996;2023-02-15T05:10:47;6.00;;;2.67;;
65572;SDS011;52214;50.940;13.996;2023-02-15T05:13:14;6.38;;;3.03;;
65572;SDS011;52214;50.940;13.996;2023-02-15T05:15:40;8.00;;;3.35;;
65572;SDS011;52214;50.940;13.996;2023-02-15T05:18:06;6.10;;;2.87;;
65572;SDS011;52214;50.940;13.996;2023-02-15T05:20:33;6.82;;;3.10;;
65572;SDS011;52214;50.940;13.996;2023-02-15T05:22:59;7.43;;;3.47;;
65572;SDS011;52214;50.940;13.996;2023-02-15T05:25:24;6.83;;;2.77;;
65572;SDS011;52214;50.940;13.996;2023-02-15T05:28:10;8.02;;;3.08;;
65572;SDS011;52214;50.940;13.996;2023-02-15T05:30:46;6.60;;;3.03;;
65572;SDS011;52214;50.940;13.996;2023-02-15T05:33:14;6.60;;;2.60;;
65572;SDS011;52214;50.940;13.996;2023-02-15T05:35:40;7.05;;;3.03;;
65572;SDS011;52214;50.940;13.996;2023-02-15T05:38:06;7.82;;;3.53;;
65572;SDS011;52214;50.940;13.996;2023-02-15T05:40:32;6.38;;;3.10;;
65572;SDS011;52214;50.940;13.996;2023-02-15T05:42:58;7.70;;;3.42;;
65572;SDS011;52214;50.940;13.996;2023-02-15T05:45:23;7.37;;;3.27;;
65572;SDS011;52214;50.940;13.996;2023-02-15T05:47:50;7.40;;;3.15;;
65572;SDS011;52214;50.940;13.996;2023-02-15T05:50:16;8.05;;;3.47;;
65572;SDS011;52214;50.940;13.996;2023-02-15T05:52:42;6.83;;;2.93;;
65572;SDS011;52214;50.940;13.996;2023-02-15T05:55:08;6.93;;;3.17;;
65572;SDS011;52214;50.940;13.996;2023-02-15T05:57:34;6.43;;;3.27;;
65572;SDS011;52214;50.940;13.996;2023-02-15T06:00:01;7.38;;;3.40;;
65572;SDS011;52214;50.940;13.996;2023-02-15T06:02:29;8.60;;;3.28;;
65572;SDS011;52214;50.940;13.996;2023-02-15T06:04:59;7.72;;;3.45;;
65572;SDS011;52214;50.940;13.996;2023-02-15T06:07:25;8.00;;;3.73;;
65572;SDS011;52214;50.940;13.996;2023-02-15T06:09:51;6.57;;;3.10;;
65572;SDS011;52214;50.940;13.996;2023-02-15T06:12:16;6.33;;;2.80;;
65572;SDS011;52214;50.940;13.996;2023-02-15T06:14:42;7.38;;;2.80;;
65572;SDS011;52214;50.940;13.996;2023-02-15T06:17:08;6.63;;;2.97;;
65572;SDS011;52214;50.940;13.996;2023-02-15T06:19:33;6.03;;;3.15;;
65572;SDS011;52214;50.940;13.996;2023-02-15T06:21:59;8.63;;;3.70;;
65572;SDS011;52214;50.940;13.996;2023-02-15T06:24:25;7.97;;;3.20;;
65572;SDS011;52214;50.940;13.996;2023-02-15T06:26:50;6.97;;;2.73;;
65572;SDS011;52214;50.940;13.996;2023-02-15T06:29:16;7.47;;;3.33;;
65572;SDS011;52214;50.940;13.996;2023-02-15T06:31:41;6.40;;;2.85;;
65572;SDS011;52214;50.940;13.996;2023-02-15T06:34:07;5.93;;;2.80;;
65572;SDS011;52214;50.940;13.996;2023-02-15T06:36:32;7.07;;;3.10;;
65572;SDS011;52214;50.940;13.996;2023-02-15T06:38:58;7.53;;;3.22;;
65572;SDS011;52214;50.940;13.996;2023-02-15T06:41:24;5.93;;;2.70;;
65572;SDS011;52214;50.940;13.996;2023-02-15T06:43:49;6.10;;;3.13;;
65572;SDS011;52214;50.940;13.996;2023-02-15T06:46:15;6.32;;;2.97;;
65572;SDS011;52214;50.940;13.996;2023-02-15T06:48:41;6.28;;;2.95;;
65572;SDS011;52214;50.940;13.996;2023-02-15T06:51:07;6.90;;;3.40;;
65572;SDS011;52214;50.940;13.996;2023-02-15T06:53:33;7.10;;;3.25;;
65572;SDS011;52214;50.940;13.996;2023-02-15T06:56:02;6.90;;;3.07;;
65572;SDS011;52214;50.940;13.996;2023-02-15T06:58:32;6.93;;;3.15;;
65572;SDS011;52214;50.940;13.996;2023-02-15T07:00:59;6.28;;;2.80;;
65572;SDS011;52214;50.940;13.996;2023-02-15T07:03:24;6.40;;;3.13;;
65572;SDS011;52214;50.940;13.996;2023-02-15T07:05:54;6.88;;;2.90;;
65572;SDS011;52214;50.940;13.996;2023-02-15T07:08:21;7.67;;;3.33;;
65572;SDS011;52214;50.940;13.996;2023-02-15T07:10:48;6.28;;;2.83;;
65572;SDS011;52214;50.940;13.996;2023-02-15T07:13:15;7.22;;;3.05;;
65572;SDS011;52214;50.940;13.996;2023-02-15T07:15:40;5.68;;;2.70;;
65572;SDS011;52214;50.940;13.996;2023-02-15T07:18:06;6.63;;;2.70;;
65572;SDS011;52214;50.940;13.996;2023-02-15T07:20:32;6.23;;;3.03;;
65572;SDS011;52214;50.940;13.996;2023-02-15T07:23:01;6.82;;;3.03;;
65572;SDS011;52214;50.940;13.996;2023-02-15T07:25:27;8.18;;;3.33;;
65572;SDS011;52214;50.940;13.996;2023-02-15T07:27:56;6.07;;;2.83;;
65572;SDS011;52214;50.940;13.996;2023-02-15T07:30:26;7.10;;;3.30;;
65572;SDS011;52214;50.940;13.996;2023-02-15T07:32:55;7.32;;;3.00;;
65572;SDS011;52214;50.940;13.996;2023-02-15T07:35:49;7.13;;;2.83;;
65572;SDS011;52214;50.940;13.996;2023-02-15T07:38:17;5.88;;;2.70;;
65572;SDS011;52214;50.940;13.996;2023-02-15T07:40:43;6.20;;;2.80;;
65572;SDS011;52214;50.940;13.996;2023-02-15T07:43:09;7.70;;;3.00;;
65572;SDS011;52214;50.940;13.996;2023-02-15T07:45:36;6.53;;;2.97;;
65572;SDS011;52214;50.940;13.996;2023-02-15T07:48:02;6.25;;;2.75;;
65572;SDS011;52214;50.940;13.996;2023-02-15T07:50:29;6.03;;;2.80;;
65572;SDS011;52214;50.940;13.996;2023-02-15T07:52:55;6.40;;;2.95;;
65572;SDS011;52214;50.940;13.996;2023-02-15T07:55:21;6.07;;;2.97;;
65572;SDS011;52214;50.940;13.996;2023-02-15T07:57:47;6.37;;;3.10;;
65572;SDS011;52214;50.940;13.996;2023-02-15T08:00:15;6.88;;;3.00;;
65572;SDS011;52214;50.940;13.996;2023-02-15T08:02:47;6.50;;;2.90;;
65572;SDS011;52214;50.940;13.996;2023-02-15T08:05:14;7.07;;;2.70;;
65572;SDS011;52214;50.940;13.996;2023-02-15T08:07:42;6.78;;;3.28;;
65572;SDS011;52214;50.940;13.996;2023-02-15T08:10:07;6.03;;;3.03;;
65572;SDS011;52214;50.940;13.996;2023-02-15T08:12:34;5.30;;;2.70;;
65572;SDS011;52214;50.940;13.996;2023-02-15T08:14:59;6.93;;;2.63;;
65572;SDS011;52214;50.940;13.996;2023-02-15T08:17:25;6.73;;;2.90;;
65572;SDS011;52214;50.940;13.996;2023-02-15T08:19:50;6.13;;;2.88;;
65572;SDS011;52214;50.940;13.996;2023-02-15T08:22:16;6.00;;;2.53;;
65572;SDS011;52214;50.940;13.996;2023-02-15T08:24:41;7.00;;;2.80;;
65572;SDS011;52214;50.940;13.996;2023-02-15T08:27:08;5.72;;;2.42;;
65572;SDS011;52214;50.940;13.996;2023-02-15T08:29:36;6.05;;;2.85;;
65572;SDS011;52214;50.940;13.996;2023-02-15T08:32:05;6.47;;;2.75;;
65572;SDS011;52214;50.940;13.996;2023-02-15T08:34:34;6.57;;;3.00;;
65572;SDS011;52214;50.940;13.996;2023-02-15T08:37:03;6.20;;;2.95;;
65572;SDS011;52214;50.940;13.996;2023-02-15T08:39:29;5.80;;;2.63;;
65572;SDS011;52214;50.940;13.996;2023-02-15T08:41:55;7.25;;;3.20;;
65572;SDS011;52214;50.940;13.996;2023-02-15T08:44:21;7.07;;;3.10;;
65572;SDS011;52214;50.940;13.996;2023-02-15T08:46:48;5.63;;;2.38;;
65572;SDS011;52214;50.940;13.996;2023-02-15T08:49:16;7.38;;;3.35;;
65572;SDS011;52214;50.940;13.996;2023-02-15T08:51:46;5.63;;;2.60;;
65572;SDS011;52214;50.940;13.996;2023-02-15T08:54:13;7.88;;;2.97;;
65572;SDS011;52214;50.940;13.996;2023-02-15T08:56:41;5.37;;;2.57;;
65572;SDS011;52214;50.940;13.996;2023-02-15T08:59:12;5.85;;;2.47;;
65572;SDS011;52214;50.940;13.996;2023-02-15T09:01:40;6.13;;;2.70;;
65572;SDS011;52214;50.940;13.996;2023-02-15T09:04:06;6.32;;;2.85;;
65572;SDS011;52214;50.940;13.996;2023-02-15T09:06:34;6.43;;;2.83;;
65572;SDS011;52214;50.940;13.996;2023-02-15T09:09:02;7.25;;;3.20;;
65572;SDS011;52214;50.940;13.996;2023-02-15T09:11:30;5.80;;;2.80;;
65572;SDS011;52214;50.940;13.996;2023-02-15T09:14:00;6.13;;;2.90;;
65572;SDS011;52214;50.940;13.996;2023-02-15T09:16:30;5.70;;;2.57;;
65572;SDS011;52214;50.940;13.996;2023-02-15T09:18:57;5.97;;;2.60;;
65572;SDS011;52214;50.940;13.996;2023-02-15T09:21:24;6.85;;;3.10;;
65572;SDS011;52214;50.940;13.996;2023-02-15T09:23:52;7.05;;;2.72;;
65572;SDS011;52214;50.940;13.996;2023-02-15T09:26:22;5.38;;;2.72;;
65572;SDS011;52214;50.940;13.996;2023-02-15T09:28:53;5.97;;;2.67;;
65572;SDS011;52214;50.940;13.996;2023-02-15T09:31:21;5.57;;;2.63;;
65572;SDS011;52214;50.940;13.996;2023-02-15T09:33:49;6.40;;;3.17;;
65572;SDS011;52214;50.940;13.996;2023-02-15T09:36:17;6.32;;;3.00;;
65572;SDS011;52214;50.940;13.996;2023-02-15T09:38:52;6.00;;;2.47;;
65572;SDS011;52214;50.940;13.996;2023-02-15T09:41:27;6.88;;;2.70;;
65572;SDS011;52214;50.940;13.996;2023-02-15T09:44:34;6.55;;;2.90;;
65572;SDS011;52214;50.940;13.996;2023-02-15T09:55:34;6.93;;;2.83;;
65572;SDS011;52214;50.940;13.996;2023-02-15T09:58:26;6.80;;;2.85;;
65572;SDS011;52214;50.940;13.996;2023-02-15T10:01:09;6.50;;;3.00;;
65572;SDS011;52214;50.940;13.996;2023-02-15T10:03:54;6.93;;;2.97;;
65572;SDS011;52214;50.940;13.996;2023-02-15T10:28:30;7.32;;;3.00;;
65572;SDS011;52214;50.940;13.996;2023-02-15T10:31:17;5.97;;;2.72;;
65572;SDS011;52214;50.940;13.996;2023-02-15T10:33:55;7.50;;;3.00;;
65572;SDS011;52214;50.940;13.996;2023-02-15T10:42:41;6.78;;;2.80;;
65572;SDS011;52214;50.940;13.996;2023-02-15T10:45:31;6.53;;;3.08;;
65572;SDS011;52214;50.940;13.996;2023-02-15T10:48:11;6.87;;;2.80;;
65572;SDS011;52214;50.940;13.996;2023-02-15T10:50:56;6.50;;;3.10;;
65572;SDS011;52214;50.940;13.996;2023-02-15T10:56:25;7.25;;;3.00;;
65572;SDS011;52214;50.940;13.996;2023-02-15T10:59:04;5.93;;;3.05;;
65572;SDS011;52214;50.940;13.996;2023-02-15T11:10:02;6.63;;;2.90;;
65572;SDS011;52214;50.940;13.996;2023-02-15T11:12:47;7.13;;;3.10;;
65572;SDS011;52214;50.940;13.996;2023-02-15T11:15:19;12.87;;;5.80;;
65572;SDS011;52214;50.940;13.996;2023-02-15T11:23:19;36.10;;;13.43;;
65572;SDS011;52214;50.940;13.996;2023-02-15T11:25:47;43.00;;;16.95;;
65572;SDS011;52214;50.940;13.996;2023-02-15T11:28:30;45.37;;;18.17;;
65572;SDS011;52214;50.940;13.996;2023-02-15T11:31:10;44.40;;;18.25;;
65572;SDS011;52214;50.940;13.996;2023-02-15T11:33:42;51.90;;;20.85;;
65572;SDS011;52214;50.940;13.996;2023-02-15T11:36:12;52.45;;;22.00;;
65572;SDS011;52214;50.940;13.996;2023-02-15T11:38:42;53.47;;;21.63;;
65572;SDS011;52214;50.940;13.996;2023-02-15T11:41:12;50.13;;;21.10;;
65572;SDS011;52214;50.940;13.996;2023-02-15T11:43:50;55.70;;;21.75;;
65572;SDS011;52214;50.940;13.996;2023-02-15T11:46:38;54.90;;;22.25;;
65572;SDS011;52214;50.940;13.996;2023-02-15T11:49:10;55.67;;;22.27;;
65572;SDS011;52214;50.940;13.996;2023-02-15T11:52:00;52.60;;;21.20;;
65572;SDS011;52214;50.940;13.996;2023-02-15T11:54:31;53.13;;;22.27;;
65572;SDS011;52214;50.940;13.996;2023-02-15T11:57:03;53.28;;;21.70;;
65572;SDS011;52214;50.940;13.996;2023-02-15T12:04:54;55.33;;;23.10;;
65572;SDS011;52214;50.940;13.996;2023-02-15T12:07:35;55.88;;;22.63;;
65572;SDS011;52214;50.940;13.996;2023-02-15T12:12:42;53.45;;;22.33;;
65572;SDS011;52214;50.940;13.996;2023-02-15T12:15:10;52.50;;;22.53;;
65572;SDS011;52214;50.940;13.996;2023-02-15T12:17:39;55.13;;;22.52;;
65572;SDS011;52214;50.940;13.996;2023-02-15T12:20:24;52.35;;;22.90;;
65572;SDS011;52214;50.940;13.996;2023-02-15T12:22:58;58.05;;;23.13;;
65572;SDS011;52214;50.940;13.996;2023-02-15T12:33:27;56.83;;;24.08;;
65572;SDS011;52214;50.940;13.996;2023-02-15T12:35:59;56.72;;;23.60;;
65572;SDS011;52214;50.940;13.996;2023-02-15T12:38:28;61.40;;;22.58;;
65572;SDS011;52214;50.940;13.996;2023-02-15T12:40:56;56.30;;;24.03;;
65572;SDS011;52214;50.940;13.996;2023-02-15T12:43:32;56.65;;;23.95;;
65572;SDS011;52214;50.940;13.996;2023-02-15T12:54:26;62.00;;;25.83;;
65572;SDS011;52214;50.940;13.996;2023-02-15T12:56:55;66.82;;;27.00;;
65572;SDS011;52214;50.940;13.996;2023-02-15T12:59:22;60.95;;;25.23;;
65572;SDS011;52214;50.940;13.996;2023-02-15T13:01:48;69.88;;;28.60;;
65572;SDS011;52214;50.940;13.996;2023-02-15T13:04:21;64.00;;;26.73;;
65572;SDS011;52214;50.940;13.996;2023-02-15T13:06:51;64.57;;;26.17;;
65572;SDS011;52214;50.940;13.996;2023-02-15T13:09:19;67.00;;;27.65;;
65572;SDS011;52214;50.940;13.996;2023-02-15T13:11:55;68.28;;;26.17;;
65572;SDS011;52214;50.940;13.996;2023-02-15T13:14:31;66.15;;;26.20;;
65572;SDS011;52214;50.940;13.996;2023-02-15T13:16:58;62.35;;;26.27;;
65572;SDS011;52214;50.940;13.996;2023-02-15T13:22:13;60.97;;;25.15;;
65572;SDS011;52214;50.940;13.996;2023-02-15T13:24:44;64.00;;;24.88;;
65572;SDS011;52214;50.940;13.996;2023-02-15T13:27:16;62.53;;;24.55;;
65572;SDS011;52214;50.940;13.996;2023-02-15T13:29:48;61.75;;;25.70;;
65572;SDS011;52214;50.940;13.996;2023-02-15T13:32:33;79.60;;;30.83;;
65572;SDS011;52214;50.940;13.996;2023-02-15T13:35:04;103.63;;;36.72;;
65572;SDS011;52214;50.940;13.996;2023-02-15T13:40:33;79.35;;;30.48;;
65572;SDS011;52214;50.940;13.996;2023-02-15T13:43:25;71.53;;;30.10;;
65572;SDS011;52214;50.940;13.996;2023-02-15T13:56:40;71.35;;;29.25;;
65572;SDS011;52214;50.940;13.996;2023-02-15T14:16:00;60.00;;;26.77;;
65572;SDS011;52214;50.940;13.996;2023-02-15T14:18:36;57.67;;;26.83;;
65572;SDS011;52214;50.940;13.996;2023-02-15T14:21:10;61.72;;;26.77;;
65572;SDS011;52214;50.940;13.996;2023-02-15T14:23:53;61.47;;;25.77;;
65572;SDS011;52214;50.940;13.996;2023-02-15T14:26:41;62.70;;;25.10;;
65572;SDS011;52214;50.940;13.996;2023-02-15T14:29:22;60.40;;;26.17;;
65572;SDS011;52214;50.940;13.996;2023-02-15T14:32:04;62.20;;;25.58;;
65572;SDS011;52214;50.940;13.996;2023-02-15T14:40:12;60.97;;;24.90;;
65572;SDS011;52214;50.940;13.996;2023-02-15T14:43:11;62.03;;;25.10;;
65572;SDS011;52214;50.940;13.996;2023-02-15T14:53:33;59.80;;;24.80;;
65572;SDS011;52214;50.940;13.996;2023-02-15T14:56:13;58.70;;;24.75;;
65572;SDS011;52214;50.940;13.996;2023-02-15T15:01:26;54.20;;;24.20;;
65572;SDS011;52214;50.940;13.996;2023-02-15T15:03:59;58.90;;;25.60;;
65572;SDS011;52214;50.940;13.996;2023-02-15T15:06:32;58.58;;;27.50;;
65572;SDS011;52214;50.940;13.996;2023-02-15T15:09:05;64.15;;;28.75;;
65572;SDS011;52214;50.940;13.996;2023-02-15T15:14:06;60.40;;;27.40;;
65572;SDS011;52214;50.940;13.996;2023-02-15T15:22:23;55.72;;;26.00;;
65572;SDS011;52214;50.940;13.996;2023-02-15T15:24:58;56.25;;;25.77;;
65572;SDS011;52214;50.940;13.996;2023-02-15T15:35:35;54.10;;;23.90;;
65572;SDS011;52214;50.940;13.996;2023-02-15T15:52:23;51.13;;;22.40;;
65572;SDS011;52214;50.940;13.996;2023-02-15T15:54:52;58.17;;;24.33;;
65572;SDS011;52214;50.940;13.996;2023-02-15T15:57:30;56.63;;;23.60;;
65572;SDS011;52214;50.940;13.996;2023-02-15T16:00:00;58.33;;;23.92;;
65572;SDS011;52214;50.940;13.996;2023-02-15T16:02:26;55.05;;;23.05;;
65572;SDS011;52214;50.940;13.996;2023-02-15T16:04:52;55.92;;;24.10;;
65572;SDS011;52214;50.940;13.996;2023-02-15T16:09:56;52.78;;;21.77;;
65572;SDS011;52214;50.940;13.996;2023-02-15T16:12:25;57.50;;;22.90;;
65572;SDS011;52214;50.940;13.996;2023-02-15T16:14:54;54.80;;;22.95;;
65572;SDS011;52214;50.940;13.996;2023-02-15T16:17:23;58.20;;;23.35;;
65572;SDS011;52214;50.940;13.996;2023-02-15T16:19:58;56.40;;;24.57;;
65572;SDS011;52214;50.940;13.996;2023-02-15T16:22:34;59.85;;;23.20;;
65572;SDS011;52214;50.940;13.996;2023-02-15T16:27:33;60.40;;;23.52;;
65572;SDS011;52214;50.940;13.996;2023-02-15T16:37:47;59.78;;;24.98;;
65572;SDS011;52214;50.940;13.996;2023-02-15T16:48:04;54.22;;;22.77;;
65572;SDS011;52214;50.940;13.996;2023-02-15T16:50:35;54.97;;;23.40;;
65572;SDS011;52214;50.940;13.996;2023-02-15T16:53:03;57.20;;;22.40;;
65572;SDS011;52214;50.940;13.996;2023-02-15T16:55:40;54.42;;;22.85;;
65572;SDS011;52214;50.940;13.996;2023-02-15T16:58:11;51.20;;;21.23;;
65572;SDS011;52214;50.940;13.996;2023-02-15T17:00:40;55.60;;;22.95;;
65572;SDS011;52214;50.940;13.996;2023-02-15T17:03:19;57.58;;;23.25;;
65572;SDS011;52214;50.940;13.996;2023-02-15T17:05:50;50.50;;;21.20;;
65572;SDS011;52214;50.940;13.996;2023-02-15T17:08:19;52.42;;;21.65;;
65572;SDS011;52214;50.940;13.996;2023-02-15T17:18:59;52.05;;;20.67;;
65572;SDS011;52214;50.940;13.996;2023-02-15T17:21:30;55.03;;;22.75;;
65572;SDS011;52214;50.940;13.996;2023-02-15T17:23:59;49.60;;;21.98;;
65572;SDS011;52214;50.940;13.996;2023-02-15T17:26:31;48.95;;;20.10;;
65572;SDS011;52214;50.940;13.996;2023-02-15T17:29:02;47.60;;;20.97;;
65572;SDS011;52214;50.940;13.996;2023-02-15T17:31:39;48.78;;;21.75;;
65572;SDS011;52214;50.940;13.996;2023-02-15T17:34:05;51.65;;;21.45;;
65572;SDS011;52214;50.940;13.996;2023-02-15T17:36:58;52.10;;;21.43;;
65572;SDS011;52214;50.940;13.996;2023-02-15T17:39:25;47.95;;;20.38;;
65572;SDS011;52214;50.940;13.996;2023-02-15T17:41:51;50.38;;;21.40;;
65572;SDS011;52214;50.940;13.996;2023-02-15T17:44:18;52.15;;;21.52;;
65572;SDS011;52214;50.940;13.996;2023-02-15T17:46:43;53.97;;;21.63;;
65572;SDS011;52214;50.940;13.996;2023-02-15T17:49:14;49.92;;;20.95;;
65572;SDS011;52214;50.940;13.996;2023-02-15T17:51:49;48.58;;;20.73;;
65572;SDS011;52214;50.940;13.996;2023-02-15T17:54:14;46.17;;;20.37;;
65572;SDS011;52214;50.940;13.996;2023-02-15T17:57:00;49.72;;;21.02;;
65572;SDS011;52214;50.940;13.996;2023-02-15T17:59:25;52.23;;;21.67;;
65572;SDS011;52214;50.940;13.996;2023-02-15T18:01:51;50.58;;;21.27;;
65572;SDS011;52214;50.940;13.996;2023-02-15T18:04:35;51.30;;;20.83;;
65572;SDS011;52214;50.940;13.996;2023-02-15T18:07:20;48.70;;;19.98;;
65572;SDS011;52214;50.940;13.996;2023-02-15T18:10:12;50.85;;;20.88;;
65572;SDS011;52214;50.940;13.996;2023-02-15T18:13:01;44.95;;;19.50;;
65572;SDS011;52214;50.940;13.996;2023-02-15T18:15:26;47.93;;;20.80;;
65572;SDS011;52214;50.940;13.996;2023-02-15T18:17:53;48.72;;;20.55;;
65572;SDS011;52214;50.940;13.996;2023-02-15T18:20:20;47.63;;;20.52;;